createdAt,value
2022-12-03T00:00:44.178Z,71.71
2022-12-03T00:03:15.175Z,71.36
2022-12-03T00:05:49.149Z,71.35
2022-12-03T00:08:20.214Z,70.92
2022-12-03T00:10:51.532Z,70.85
2022-12-03T00:13:24.034Z,71.01
2022-12-03T00:15:54.855Z,70.83
2022-12-03T00:18:25.693Z,70.67
2022-12-03T00:20:56.430Z,70.45
2022-12-03T00:23:27.220Z,70.01
2022-12-03T00:25:57.963Z,69.86
2022-12-03T00:28:30.599Z,69.45
2022-12-03T00:31:01.468Z,69.18
2022-12-03T00:33:32.367Z,69.29
2022-12-03T00:36:03.021Z,68.98
2022-12-03T00:38:33.731Z,68.87
2022-12-03T00:41:04.430Z,68.39
2022-12-03T00:43:37.274Z,68.44
2022-12-03T00:46:08.109Z,68.41
2022-12-03T00:48:38.892Z,67.81
2022-12-03T00:51:10.120Z,67.39
2022-12-03T00:53:40.813Z,67.75
2022-12-03T00:56:11.943Z,67.99
2022-12-03T00:58:44.250Z,68.30
2022-12-03T01:01:15.028Z,68.39
2022-12-03T01:03:45.741Z,68.50
2022-12-03T01:06:16.459Z,67.95
2022-12-03T01:08:47.225Z,67.71
2022-12-03T01:11:34.878Z,68.16
2022-12-03T01:14:07.423Z,67.99
2022-12-03T01:16:38.453Z,68.12
2022-12-03T01:19:10.018Z,68.52
2022-12-03T01:21:41.211Z,68.91
2022-12-03T01:24:12.505Z,69.29
2022-12-03T01:26:43.338Z,68.95
2022-12-03T01:29:16.100Z,68.02
2022-12-03T01:32:03.571Z,68.46
2022-12-03T01:34:34.349Z,68.76
2022-12-03T01:37:05.256Z,68.61
2022-12-03T01:39:36.037Z,69.30
2022-12-03T01:42:07.622Z,68.84
2022-12-03T01:44:42.708Z,68.76
2022-12-03T01:47:17.514Z,69.20
2022-12-03T01:49:53.832Z,68.78
2022-12-03T01:52:29.837Z,68.15
2022-12-03T01:55:04.610Z,68.91
2022-12-03T01:57:42.933Z,69.00
2022-12-03T02:00:18.783Z,68.03
2022-12-03T02:02:51.183Z,67.96
2022-12-03T02:05:24.448Z,68.08
2022-12-03T02:08:07.196Z,67.63
2022-12-03T02:10:40.521Z,67.73
2022-12-03T02:13:12.873Z,67.48
2022-12-03T02:15:45.375Z,67.96
2022-12-03T02:18:16.183Z,67.55
2022-12-03T02:20:56.111Z,67.45
2022-12-03T02:23:35.562Z,67.85
2022-12-03T02:26:08.065Z,67.98
2022-12-03T02:28:38.937Z,67.52
2022-12-03T02:31:10.030Z,67.56
2022-12-03T02:33:41.842Z,67.58
2022-12-03T02:36:14.016Z,67.55
2022-12-03T02:38:45.944Z,67.31
2022-12-03T02:41:34.887Z,66.86
2022-12-03T02:44:06.397Z,66.90
2022-12-03T02:46:38.180Z,66.54
2022-12-03T02:49:18.525Z,66.57
2022-12-03T02:51:49.759Z,66.59
2022-12-03T02:54:21.181Z,66.30
2022-12-03T02:56:53.785Z,66.84
2022-12-03T02:59:24.615Z,66.40
2022-12-03T03:01:55.502Z,66.38
2022-12-03T03:04:26.776Z,65.72
2022-12-03T03:06:57.613Z,65.53
2022-12-03T03:09:28.840Z,65.76
2022-12-03T03:12:01.107Z,65.90
2022-12-03T03:14:31.744Z,67.11
2022-12-03T03:17:02.549Z,66.81
2022-12-03T03:19:33.889Z,66.16
2022-12-03T03:22:04.597Z,66.33
2022-12-03T03:24:35.874Z,65.67
2022-12-03T03:27:09.028Z,64.96
2022-12-03T03:29:40.118Z,63.52
2022-12-03T03:32:10.839Z,62.98
2022-12-03T03:34:42.657Z,63.58
2022-12-03T03:37:13.432Z,62.58
2022-12-03T03:39:44.235Z,62.43
2022-12-03T03:42:16.871Z,62.91
2022-12-03T03:44:48.940Z,61.22
2022-12-03T03:47:20.277Z,58.46
2022-12-03T03:49:51.681Z,58.63
2022-12-03T03:52:23.145Z,58.53
2022-12-03T03:54:54.199Z,57.63
2022-12-03T03:57:27.030Z,58.44
2022-12-03T03:59:57.891Z,57.87
2022-12-03T04:02:32.316Z,57.74
2022-12-03T04:05:03.560Z,58.16
2022-12-03T04:07:34.397Z,57.54
2022-12-03T04:10:25.831Z,56.79
2022-12-03T04:12:56.884Z,56.55
2022-12-03T04:15:28.733Z,56.85
2022-12-03T04:18:16.079Z,56.66
2022-12-03T04:20:46.881Z,55.82
2022-12-03T04:23:16.298Z,54.67
2022-12-03T04:26:03.777Z,54.96
2022-12-03T04:28:54.288Z,55.91
2022-12-03T04:31:41.825Z,56.75
2022-12-03T04:34:29.593Z,56.00
2022-12-03T04:37:00.325Z,55.54
2022-12-03T04:39:30.968Z,55.61
2022-12-03T04:42:02.316Z,56.98
2022-12-03T04:44:40.822Z,56.49
2022-12-03T04:47:13.795Z,56.66
2022-12-03T04:49:46.132Z,56.00
2022-12-03T04:52:18.360Z,56.33
2022-12-03T04:54:49.200Z,55.67
2022-12-03T04:57:21.836Z,56.43
2022-12-03T04:59:55.781Z,55.01
2022-12-03T05:02:26.495Z,56.33
2022-12-03T05:04:57.321Z,56.36
2022-12-03T05:07:28.067Z,56.15
2022-12-03T05:09:58.771Z,55.67
2022-12-03T05:12:29.490Z,55.59
2022-12-03T05:15:01.816Z,56.12
2022-12-03T05:17:32.590Z,56.49
2022-12-03T05:20:20.213Z,56.31
2022-12-03T05:22:50.953Z,56.95
2022-12-03T05:25:21.663Z,56.58
2022-12-03T05:27:52.359Z,56.44
2022-12-03T05:30:24.904Z,57.49
2022-12-03T05:36:05.331Z,57.70
2022-12-03T05:39:14.821Z,57.84
2022-12-03T05:42:29.629Z,57.21
2022-12-03T05:48:41.234Z,58.61
2022-12-03T05:51:34.394Z,58.35
2022-12-03T05:54:22.833Z,58.56
2022-12-03T05:57:37.005Z,58.40
2022-12-03T06:00:20.120Z,58.78
2022-12-03T06:03:21.471Z,58.71
2022-12-03T06:06:17.307Z,58.21
2022-12-03T06:09:16.913Z,59.01
2022-12-03T06:11:59.457Z,59.37
2022-12-03T06:14:45.051Z,58.95
2022-12-03T06:17:37.675Z,58.47
2022-12-03T06:20:29.904Z,58.16
2022-12-03T06:23:29.537Z,58.72
2022-12-03T06:26:33.090Z,60.15
2022-12-03T06:29:18.685Z,61.38
2022-12-03T06:31:57.609Z,62.92
2022-12-03T06:34:35.854Z,64.36
2022-12-03T06:37:19.158Z,65.80
2022-12-03T06:40:16.977Z,66.55
2022-12-03T06:43:02.444Z,67.20
2022-12-03T06:45:44.560Z,67.80
2022-12-03T06:48:32.601Z,67.91
2022-12-03T06:54:11.078Z,68.86
2022-12-03T06:57:11.808Z,69.34
2022-12-03T06:59:54.647Z,69.56
2022-12-03T07:02:48.553Z,70.30
2022-12-03T07:05:32.363Z,70.69
2022-12-03T07:12:00.329Z,70.61
2022-12-03T07:15:31.625Z,71.34
2022-12-03T07:22:10.535Z,72.04
2022-12-03T08:10:57.609Z,70.67
2022-12-03T08:13:50.869Z,70.16
2022-12-03T08:16:32.227Z,70.15
2022-12-03T08:19:37.055Z,70.13
2022-12-03T08:22:45.358Z,69.21
2022-12-03T09:05:42.559Z,71.73
2022-12-03T09:08:18.759Z,72.53
2022-12-03T09:11:04.401Z,72.52
2022-12-03T09:14:20.578Z,72.79
2022-12-03T09:17:02.683Z,72.97
2022-12-03T09:19:56.402Z,73.20
2022-12-03T09:22:50.087Z,73.33
2022-12-03T09:25:33.409Z,73.21
2022-12-03T09:28:19.724Z,72.81
2022-12-03T09:31:04.527Z,72.81
2022-12-03T09:33:49.921Z,73.08
2022-12-03T09:36:31.613Z,72.96
2022-12-03T09:39:13.676Z,73.26
2022-12-03T09:41:58.703Z,73.74
2022-12-03T09:44:57.362Z,73.35
2022-12-03T09:56:55.721Z,74.91
2022-12-03T09:59:46.807Z,75.10
2022-12-03T10:03:02.803Z,75.31
2022-12-03T10:05:54.066Z,75.38
2022-12-03T10:08:47.059Z,75.61
2022-12-03T10:11:29.059Z,75.77
2022-12-03T10:17:58.799Z,76.44
2022-12-03T10:20:55.369Z,76.92
2022-12-03T10:23:37.326Z,76.64
2022-12-03T10:33:29.860Z,75.54
2022-12-03T10:36:32.920Z,75.81
2022-12-03T10:39:17.096Z,75.60
2022-12-03T10:41:58.762Z,75.63
2022-12-03T10:44:40.457Z,75.85
2022-12-03T10:47:31.730Z,76.57
2022-12-03T10:56:58.848Z,78.28
2022-12-03T10:59:49.652Z,78.34
2022-12-03T11:02:30.580Z,78.66
2022-12-03T11:05:12.078Z,78.61
2022-12-03T11:07:53.826Z,78.72
2022-12-03T11:14:01.660Z,79.17
2022-12-03T11:17:14.964Z,79.64
2022-12-03T11:19:54.149Z,79.83
2022-12-03T11:22:47.656Z,79.45
2022-12-03T11:25:53.279Z,79.34
2022-12-03T11:28:39.320Z,79.28
2022-12-03T11:31:37.447Z,78.63
2022-12-03T11:34:44.579Z,78.38
2022-12-03T11:37:32.601Z,78.74
2022-12-03T11:40:39.569Z,79.34
2022-12-03T11:43:13.918Z,79.79
2022-12-03T11:45:45.616Z,80.21
2022-12-03T11:48:19.940Z,80.48
2022-12-03T11:50:55.594Z,80.82
2022-12-03T11:53:30.688Z,80.80
2022-12-03T11:56:10.078Z,80.77
2022-12-03T11:58:46.575Z,80.93
2022-12-03T12:01:38.546Z,80.74
2022-12-03T12:04:49.258Z,80.19
2022-12-03T12:07:34.170Z,80.66
2022-12-03T12:10:06.526Z,80.63
2022-12-03T12:12:51.107Z,80.79
2022-12-03T12:15:53.282Z,80.35
2022-12-03T12:18:42.517Z,80.00
2022-12-03T12:21:48.778Z,79.47
2022-12-03T12:24:41.440Z,78.87
2022-12-03T12:27:14.215Z,78.45
2022-12-03T12:29:49.556Z,78.10
2022-12-03T12:32:27.017Z,78.02
2022-12-03T12:35:01.777Z,77.65
2022-12-03T12:37:38.967Z,77.29
2022-12-03T12:40:18.798Z,77.98
2022-12-03T12:42:55.419Z,78.81
2022-12-03T12:45:42.779Z,78.70
2022-12-03T12:48:25.534Z,78.66
2022-12-03T12:51:03.090Z,77.94
2022-12-03T12:53:37.546Z,77.92
2022-12-03T12:56:20.928Z,78.22
2022-12-03T12:58:51.894Z,78.63
2022-12-03T13:01:28.094Z,78.47
2022-12-03T13:03:59.684Z,78.37
2022-12-03T13:06:35.456Z,78.37
2022-12-03T13:09:12.456Z,78.35
2022-12-03T13:11:47.681Z,78.06
2022-12-03T13:14:21.263Z,78.06
2022-12-03T13:16:53.329Z,77.76
2022-12-03T13:19:28.609Z,77.85
2022-12-03T13:26:37.793Z,78.17
2022-12-03T13:29:22.894Z,78.66
2022-12-03T13:31:57.127Z,79.13
2022-12-03T13:34:29.464Z,78.10
2022-12-03T13:37:04.413Z,77.95
2022-12-03T13:39:38.811Z,78.14
2022-12-03T13:42:42.512Z,78.03
2022-12-03T13:45:35.547Z,77.76
2022-12-03T13:48:16.588Z,78.01
2022-12-03T13:50:56.975Z,78.31
2022-12-03T13:53:30.438Z,78.08
2022-12-03T13:56:28.189Z,78.17
2022-12-03T13:59:09.327Z,77.85
2022-12-03T14:01:44.268Z,77.89
2022-12-03T14:04:16.063Z,78.23
2022-12-03T14:06:56.940Z,78.83
2022-12-03T14:09:28.114Z,79.10
2022-12-03T14:12:37.165Z,79.26
2022-12-03T14:15:13.582Z,79.79
2022-12-03T14:17:51.782Z,79.53
2022-12-03T14:20:23.051Z,80.06
2022-12-03T14:22:59.087Z,80.40
2022-12-03T14:25:33.469Z,80.49
2022-12-03T14:28:23.328Z,80.29
2022-12-03T14:31:06.360Z,80.46
2022-12-03T14:33:56.053Z,80.44
2022-12-03T14:36:26.977Z,80.94
2022-12-03T14:38:58.925Z,81.29
2022-12-03T14:44:38.013Z,81.14
2022-12-03T14:47:41.370Z,81.10
2022-12-03T14:50:26.188Z,81.37
2022-12-03T14:53:27.518Z,82.02
2022-12-03T14:58:55.325Z,82.75
2022-12-03T15:01:49.131Z,82.91
2022-12-03T15:04:44.755Z,83.58
2022-12-03T15:07:26.207Z,83.10
2022-12-03T15:10:02.663Z,83.24
2022-12-03T15:12:55.595Z,83.44
2022-12-03T15:15:45.383Z,83.78
2022-12-03T15:18:30.168Z,84.10
2022-12-03T15:21:37.144Z,84.25
2022-12-03T15:27:22.485Z,84.59
2022-12-03T15:29:59.522Z,84.83
2022-12-03T15:32:46.389Z,85.19
2022-12-03T15:35:19.791Z,85.14
2022-12-03T15:38:05.290Z,84.90
2022-12-03T15:40:50.514Z,85.03
2022-12-03T15:43:28.675Z,84.86
2022-12-03T15:46:12.110Z,85.11
2022-12-03T15:49:14.531Z,85.21
2022-12-03T15:51:52.557Z,85.55
2022-12-03T15:54:38.333Z,85.85
2022-12-03T15:57:34.576Z,85.87
2022-12-03T16:00:25.508Z,85.95
2022-12-03T16:03:20.582Z,85.74
2022-12-03T16:06:09.064Z,85.85
2022-12-03T16:08:55.864Z,86.33
2022-12-03T16:11:50.029Z,86.37
2022-12-03T16:14:37.769Z,85.89
2022-12-03T16:17:42.768Z,85.85
2022-12-03T16:20:18.777Z,86.13
2022-12-03T16:22:56.226Z,86.06
2022-12-03T16:25:34.062Z,86.26
2022-12-03T16:28:21.770Z,86.11
2022-12-03T16:31:01.631Z,86.20
2022-12-03T16:33:39.200Z,85.91
2022-12-03T16:36:23.043Z,85.90
2022-12-03T16:39:13.263Z,86.25
2022-12-03T16:42:02.561Z,86.37
2022-12-03T16:45:15.562Z,86.34
2022-12-03T16:48:09.968Z,86.31
2022-12-03T16:50:52.971Z,86.36
2022-12-03T16:53:45.122Z,86.13
2022-12-03T16:56:21.628Z,86.40
2022-12-03T16:59:01.742Z,86.80
2022-12-03T17:01:43.988Z,86.86
2022-12-03T17:04:51.235Z,86.96
2022-12-03T17:07:44.281Z,86.49
2022-12-03T17:10:47.703Z,86.32
2022-12-03T17:13:35.136Z,86.15
2022-12-03T17:16:28.177Z,86.37
2022-12-03T17:19:12.839Z,86.26
2022-12-03T17:22:06.040Z,86.25
2022-12-03T17:24:58.038Z,86.51
2022-12-03T17:27:35.489Z,86.63
2022-12-03T17:30:20.790Z,86.43
2022-12-03T17:33:19.381Z,86.78
2022-12-03T17:36:26.908Z,86.96
2022-12-03T17:39:25.783Z,87.19
2022-12-03T17:42:23.148Z,87.38
2022-12-03T17:45:18.112Z,86.61
2022-12-03T17:48:11.788Z,86.94
2022-12-03T17:50:59.790Z,85.94
2022-12-03T17:53:38.364Z,86.78
2022-12-03T17:56:33.243Z,86.65
2022-12-03T17:59:20.189Z,86.04
2022-12-03T18:02:05.972Z,85.48
2022-12-03T18:07:45.619Z,85.15
2022-12-03T18:10:35.209Z,84.61
2022-12-03T18:13:20.019Z,84.91
2022-12-03T18:16:06.255Z,84.36
2022-12-03T18:22:04.680Z,83.52
2022-12-03T18:24:41.260Z,84.21
2022-12-03T18:27:25.564Z,84.30
2022-12-03T18:30:11.163Z,83.57
2022-12-03T18:32:59.617Z,83.43
2022-12-03T18:35:41.402Z,84.11
2022-12-03T18:38:25.173Z,84.33
2022-12-03T18:41:12.873Z,83.28
2022-12-03T18:44:00.073Z,83.02
2022-12-03T18:46:53.380Z,82.56
2022-12-03T18:49:41.162Z,82.33
2022-12-03T18:52:18.748Z,82.70
2022-12-03T18:58:17.536Z,83.05
2022-12-03T19:00:56.760Z,82.87
2022-12-03T19:03:48.058Z,83.13
2022-12-03T19:06:42.186Z,82.83
2022-12-03T19:09:21.333Z,83.62
2022-12-03T19:12:12.853Z,83.64
2022-12-03T19:14:52.085Z,83.78
2022-12-03T19:17:41.033Z,84.09
2022-12-03T19:20:42.897Z,83.50
2022-12-03T19:23:29.736Z,82.98
2022-12-03T19:26:36.343Z,82.93
2022-12-03T19:29:17.774Z,83.03
2022-12-03T19:31:57.813Z,82.74
2022-12-03T19:34:42.725Z,82.56
2022-12-03T19:37:23.257Z,82.90
2022-12-03T19:43:18.414Z,82.59
2022-12-03T19:46:04.674Z,83.09
2022-12-03T19:48:48.056Z,83.24
2022-12-03T19:51:38.292Z,83.97
2022-12-03T19:54:48.840Z,85.05
2022-12-03T19:57:44.978Z,85.42
2022-12-03T20:00:32.681Z,85.52
2022-12-03T20:06:13.342Z,84.59
2022-12-03T20:08:57.932Z,85.22
2022-12-03T20:11:39.618Z,86.05
2022-12-03T20:14:20.885Z,86.30
2022-12-03T20:17:11.511Z,86.65
2022-12-03T20:20:04.453Z,86.84
2022-12-03T20:22:44.485Z,87.34
2022-12-03T20:25:30.119Z,87.29
2022-12-03T20:28:33.936Z,87.30
2022-12-03T20:31:13.068Z,87.72
2022-12-03T20:33:55.107Z,87.27
2022-12-03T20:36:41.133Z,87.79
2022-12-03T20:39:21.613Z,87.52
2022-12-03T20:42:18.635Z,87.77
2022-12-03T20:45:01.916Z,87.91
2022-12-03T20:47:49.086Z,87.60
2022-12-03T20:50:28.458Z,87.94
2022-12-03T20:53:32.572Z,87.70
2022-12-03T20:56:21.640Z,87.40
2022-12-03T20:59:13.979Z,86.96
2022-12-03T21:02:22.050Z,86.08
2022-12-03T21:05:00.815Z,86.14
2022-12-03T21:08:05.948Z,85.65
2022-12-03T21:10:55.672Z,85.17
2022-12-03T21:13:52.712Z,84.87
2022-12-03T21:17:07.107Z,84.29
2022-12-03T21:19:58.234Z,83.81
2022-12-03T21:22:52.115Z,82.31
2022-12-03T21:25:38.556Z,80.79
2022-12-03T21:28:25.096Z,80.25
2022-12-03T21:31:20.406Z,80.30
2022-12-03T21:34:03.872Z,79.74
2022-12-03T21:36:45.391Z,79.95
2022-12-03T21:39:32.308Z,79.93
2022-12-03T21:42:34.512Z,78.69
2022-12-03T21:48:07.842Z,78.37
2022-12-03T21:54:07.999Z,78.67
2022-12-03T21:56:45.979Z,77.69
2022-12-03T21:59:25.140Z,77.51
2022-12-03T22:05:09.985Z,78.56
2022-12-03T22:07:52.470Z,77.97
2022-12-03T22:10:43.541Z,75.51
2022-12-03T22:13:25.705Z,75.53
2022-12-03T22:16:16.926Z,76.19
2022-12-03T22:19:04.759Z,76.41
2022-12-03T22:22:02.319Z,76.31
2022-12-03T22:24:51.155Z,76.50
2022-12-03T22:27:39.067Z,77.08
2022-12-03T22:30:27.727Z,76.95
2022-12-03T22:33:20.413Z,77.27
2022-12-03T22:36:20.569Z,77.03
2022-12-03T22:39:29.982Z,77.00
2022-12-03T22:42:22.499Z,76.81
2022-12-03T22:44:59.602Z,76.25
2022-12-03T22:47:43.964Z,76.47
2022-12-03T22:50:21.744Z,75.58
2022-12-03T22:53:02.146Z,75.04
2022-12-03T22:55:39.723Z,74.65
2022-12-03T22:58:37.059Z,74.42
2022-12-03T23:04:32.172Z,72.09
2022-12-03T23:07:33.235Z,72.23
2022-12-03T23:10:32.612Z,71.63
2022-12-03T23:13:18.144Z,71.36
2022-12-03T23:16:11.127Z,71.11
2022-12-03T23:18:50.218Z,71.42
2022-12-03T23:21:35.062Z,71.09
2022-12-03T23:24:13.667Z,70.81
2022-12-03T23:26:51.688Z,70.81
2022-12-03T23:29:44.913Z,71.04
2022-12-03T23:32:36.163Z,70.55
2022-12-03T23:35:53.045Z,70.91
2022-12-03T23:38:39.978Z,70.01
2022-12-03T23:44:23.419Z,70.47
2022-12-03T23:50:11.574Z,70.21
2022-12-03T23:55:58.738Z,69.10
2022-12-03T23:58:37.532Z,67.15
